createdAt,value
2023-08-12T00:01:18.800Z,85.34
2023-08-12T00:03:47.448Z,87.41
2023-08-12T00:06:15.978Z,87.23
2023-08-12T00:08:44.045Z,86.66
2023-08-12T00:11:12.485Z,86.64
2023-08-12T00:13:41.079Z,85.75
2023-08-12T00:16:09.340Z,83.05
2023-08-12T00:18:37.958Z,83.18
2023-08-12T00:21:08.864Z,83.46
2023-08-12T00:23:41.013Z,83.64
2023-08-12T00:26:10.395Z,84.76
2023-08-12T00:28:38.630Z,85.27
2023-08-12T00:31:06.712Z,84.53
2023-08-12T00:33:35.429Z,84.77
2023-08-12T00:36:03.679Z,85.25
2023-08-12T00:38:32.408Z,85.78
2023-08-12T00:41:01.420Z,87.05
2023-08-12T00:43:29.858Z,86.46
2023-08-12T00:45:58.586Z,85.95
2023-08-12T00:48:27.185Z,87.08
2023-08-12T00:50:55.294Z,87.83
2023-08-12T00:53:23.910Z,90.37
2023-08-12T00:55:52.762Z,89.27
2023-08-12T00:58:20.922Z,87.54
2023-08-12T01:00:49.112Z,86.86
2023-08-12T01:03:18.109Z,85.97
2023-08-12T01:05:47.824Z,88.06
2023-08-12T01:08:15.887Z,87.31
2023-08-12T01:10:53.703Z,88.99
2023-08-12T01:13:38.372Z,90.20
2023-08-12T01:16:09.430Z,91.66
2023-08-12T01:18:39.629Z,90.84
2023-08-12T01:21:14.037Z,90.80
2023-08-12T01:23:42.674Z,91.22
2023-08-12T01:26:11.297Z,90.55
2023-08-12T01:28:39.509Z,91.79
2023-08-12T01:31:14.856Z,92.18
2023-08-12T01:34:13.854Z,92.93
2023-08-12T01:36:47.764Z,93.28
2023-08-12T01:39:17.985Z,92.57
2023-08-12T01:41:46.981Z,92.87
2023-08-12T01:44:15.624Z,92.53
2023-08-12T01:46:45.816Z,93.42
2023-08-12T01:49:13.982Z,94.01
2023-08-12T01:51:42.435Z,94.38
2023-08-12T01:54:10.645Z,93.59
2023-08-12T01:56:38.907Z,93.72
2023-08-12T01:59:08.269Z,93.27
2023-08-12T02:01:36.653Z,94.01
2023-08-12T02:04:05.410Z,93.86
2023-08-12T02:06:33.505Z,93.77
2023-08-12T02:09:01.726Z,94.40
2023-08-12T02:11:30.179Z,95.10
2023-08-12T02:13:58.379Z,95.58
2023-08-12T02:16:26.628Z,96.17
2023-08-12T02:18:55.046Z,94.85
2023-08-12T02:21:23.312Z,95.17
2023-08-12T02:23:51.582Z,94.39
2023-08-12T02:26:20.287Z,93.27
2023-08-12T02:28:49.603Z,93.31
2023-08-12T02:31:18.324Z,93.52
2023-08-12T02:33:46.804Z,93.22
2023-08-12T02:36:14.951Z,95.65
2023-08-12T02:38:57.603Z,96.96
2023-08-12T02:41:25.770Z,96.58
2023-08-12T02:43:53.794Z,95.21
2023-08-12T02:46:22.836Z,96.25
2023-08-12T02:48:50.895Z,97.88
2023-08-12T02:51:18.931Z,96.37
2023-08-12T02:53:47.615Z,95.84
2023-08-12T02:56:15.726Z,97.32
2023-08-12T02:58:43.876Z,99.76
2023-08-12T03:01:12.566Z,98.51
2023-08-12T03:03:40.980Z,97.26
2023-08-12T03:06:09.207Z,97.49
2023-08-12T03:08:37.844Z,98.86
2023-08-12T03:11:06.367Z,99.93
2023-08-12T03:13:34.592Z,97.91
2023-08-12T03:16:04.015Z,97.39
2023-08-12T03:18:32.709Z,98.79
2023-08-12T03:21:00.937Z,98.24
2023-08-12T03:23:29.550Z,98.55
2023-08-12T03:25:58.651Z,98.92
2023-08-12T03:28:26.714Z,98.32
2023-08-12T03:30:55.649Z,97.83
2023-08-12T03:33:24.217Z,96.70
2023-08-12T03:35:52.868Z,96.17
2023-08-12T03:38:21.318Z,98.47
2023-08-12T03:40:50.818Z,98.12
2023-08-12T03:43:18.981Z,97.82
2023-08-12T03:45:48.585Z,97.36
2023-08-12T03:48:17.049Z,99.65
2023-08-12T03:50:46.716Z,99.87
2023-08-12T03:53:15.390Z,100.00
2023-08-12T03:55:44.189Z,99.42
2023-08-12T03:58:12.917Z,99.41
2023-08-12T04:00:44.716Z,100.00
2023-08-12T04:03:14.410Z,100.00
2023-08-12T04:05:53.812Z,99.59
2023-08-12T04:08:23.741Z,100.00
2023-08-12T04:10:52.514Z,100.00
2023-08-12T04:13:20.825Z,99.86
2023-08-12T04:15:54.451Z,99.00
2023-08-12T04:18:23.287Z,98.63
2023-08-12T04:20:53.213Z,100.00
2023-08-12T04:23:21.599Z,98.09
2023-08-12T04:25:50.752Z,97.68
2023-08-12T04:28:19.703Z,97.56
2023-08-12T04:30:54.085Z,98.77
2023-08-12T04:33:23.712Z,100.00
2023-08-12T04:35:54.236Z,100.00
2023-08-12T04:38:24.085Z,100.00
2023-08-12T04:40:55.203Z,100.00
2023-08-12T04:43:23.812Z,100.00
2023-08-12T04:45:52.179Z,98.75
2023-08-12T04:48:22.214Z,99.76
2023-08-12T04:50:50.668Z,100.00
2023-08-12T04:53:19.003Z,99.98
2023-08-12T04:55:51.912Z,99.85
2023-08-12T04:58:20.556Z,100.00
2023-08-12T05:00:49.354Z,99.70
2023-08-12T05:03:18.926Z,99.43
2023-08-12T05:05:53.732Z,100.00
2023-08-12T05:08:22.179Z,100.00
2023-08-12T05:10:50.929Z,100.00
2023-08-12T05:13:19.309Z,100.00
2023-08-12T05:15:48.914Z,100.00
2023-08-12T05:18:18.219Z,100.00
2023-08-12T05:20:47.443Z,100.00
2023-08-12T05:23:16.094Z,100.00
2023-08-12T05:25:44.803Z,100.00
2023-08-12T05:28:12.971Z,99.58
2023-08-12T05:30:41.300Z,98.11
2023-08-12T05:33:09.889Z,97.76
2023-08-12T05:35:38.123Z,96.62
2023-08-12T05:38:06.237Z,97.49
2023-08-12T05:40:34.642Z,96.07
2023-08-12T05:43:03.622Z,96.00
2023-08-12T05:45:31.885Z,93.86
2023-08-12T05:48:00.293Z,92.53
2023-08-12T05:50:28.540Z,91.57
2023-08-12T05:52:56.982Z,92.37
2023-08-12T05:55:25.362Z,91.65
2023-08-12T05:57:53.490Z,91.92
2023-08-12T06:00:21.698Z,90.35
2023-08-12T06:02:52.673Z,89.42
2023-08-12T06:05:21.385Z,89.28
2023-08-12T06:07:50.025Z,89.67
2023-08-12T06:10:18.148Z,89.62
2023-08-12T06:12:47.356Z,88.87
2023-08-12T06:15:15.982Z,86.49
2023-08-12T06:17:44.207Z,87.28
2023-08-12T06:20:13.018Z,87.48
2023-08-12T06:22:41.547Z,85.69
2023-08-12T06:25:09.911Z,87.33
2023-08-12T06:27:38.286Z,87.75
2023-08-12T06:30:07.501Z,83.42
2023-08-12T06:32:37.016Z,83.17
2023-08-12T06:35:05.921Z,83.30
2023-08-12T06:37:34.480Z,81.48
2023-08-12T06:40:02.673Z,80.63
2023-08-12T06:42:31.350Z,80.76
2023-08-12T06:45:01.080Z,79.28
2023-08-12T06:47:30.927Z,80.44
2023-08-12T06:49:59.701Z,78.33
2023-08-12T06:52:27.846Z,80.05
2023-08-12T06:54:55.963Z,78.43
2023-08-12T06:57:24.500Z,77.83
2023-08-12T06:59:52.897Z,77.74
2023-08-12T07:02:20.928Z,77.73
2023-08-12T07:04:49.460Z,77.64
2023-08-12T07:07:17.612Z,76.55
2023-08-12T07:09:45.677Z,72.69
2023-08-12T07:12:14.303Z,75.25
2023-08-12T07:14:43.339Z,74.81
2023-08-12T07:17:11.486Z,74.34
2023-08-12T07:19:39.858Z,72.26
2023-08-12T07:22:07.959Z,71.65
2023-08-12T07:24:36.374Z,70.92
2023-08-12T07:27:07.762Z,69.59
2023-08-12T07:29:36.096Z,71.78
2023-08-12T07:32:04.965Z,68.69
2023-08-12T07:34:33.250Z,70.10
2023-08-12T07:37:01.429Z,69.48
2023-08-12T07:39:29.866Z,67.48
2023-08-12T07:41:58.024Z,66.33
2023-08-12T07:44:26.341Z,66.94
2023-08-12T07:46:54.908Z,62.10
2023-08-12T07:49:26.232Z,62.49
2023-08-12T07:51:54.603Z,63.06
2023-08-12T07:54:22.706Z,62.30
2023-08-12T07:56:51.340Z,59.64
2023-08-12T07:59:19.823Z,62.10
2023-08-12T08:01:48.409Z,59.68
2023-08-12T08:04:16.867Z,59.50
2023-08-12T08:06:44.887Z,58.91
2023-08-12T08:09:15.928Z,57.82
2023-08-12T08:11:44.310Z,57.98
2023-08-12T08:14:12.450Z,55.72
2023-08-12T08:16:42.916Z,54.44
2023-08-12T08:19:13.398Z,56.92
2023-08-12T08:21:42.618Z,56.30
2023-08-12T08:24:12.547Z,55.33
2023-08-12T08:26:44.002Z,56.12
2023-08-12T08:29:12.171Z,53.44
2023-08-12T08:31:40.860Z,52.58
2023-08-12T08:34:09.210Z,52.84
2023-08-12T08:36:37.480Z,50.28
2023-08-12T08:39:05.907Z,51.59
2023-08-12T08:41:40.644Z,51.07
2023-08-12T08:44:10.025Z,51.29
2023-08-12T08:46:38.406Z,48.31
2023-08-12T08:49:08.048Z,50.13
2023-08-12T08:51:36.700Z,49.62
2023-08-12T08:54:08.041Z,48.57
2023-08-12T08:56:44.747Z,47.17
2023-08-12T08:59:16.624Z,47.50
2023-08-12T09:01:48.412Z,46.97
2023-08-12T09:04:17.767Z,49.29
2023-08-12T09:06:46.812Z,45.56
2023-08-12T09:09:17.860Z,48.12
2023-08-12T09:11:46.785Z,45.23
2023-08-12T09:14:15.327Z,46.48
2023-08-12T09:16:43.534Z,46.08
2023-08-12T09:19:11.995Z,44.69
2023-08-12T09:21:40.247Z,46.82
2023-08-12T09:24:09.561Z,45.47
2023-08-12T09:26:37.949Z,44.62
2023-08-12T09:29:06.141Z,43.87
2023-08-12T09:31:34.622Z,44.81
2023-08-12T09:34:10.003Z,44.03
2023-08-12T09:36:38.347Z,41.16
2023-08-12T09:39:10.185Z,44.39
2023-08-12T09:41:40.220Z,44.07
2023-08-12T09:44:09.980Z,44.15
2023-08-12T09:46:39.740Z,44.84
2023-08-12T09:49:08.453Z,45.30
2023-08-12T09:51:38.184Z,45.09
2023-08-12T09:54:06.399Z,45.41
2023-08-12T09:56:37.859Z,44.03
2023-08-12T09:59:10.750Z,44.93
2023-08-12T10:01:39.822Z,42.74
2023-08-12T10:04:14.296Z,44.76
2023-08-12T10:06:42.675Z,45.06
2023-08-12T10:09:12.268Z,42.36
2023-08-12T10:11:41.043Z,43.28
2023-08-12T10:14:10.440Z,43.46
2023-08-12T10:16:39.537Z,43.46
2023-08-12T10:19:07.758Z,45.10
2023-08-12T10:21:36.154Z,44.42
2023-08-12T10:24:06.302Z,44.08
2023-08-12T10:26:34.671Z,43.87
2023-08-12T10:29:03.778Z,46.26
2023-08-12T10:31:32.343Z,45.23
2023-08-12T10:34:00.808Z,45.91
2023-08-12T10:36:29.188Z,44.47
2023-08-12T10:38:57.937Z,43.21
2023-08-12T10:41:26.429Z,44.69
2023-08-12T10:43:55.895Z,46.02
2023-08-12T10:46:45.754Z,40.04
2023-08-12T10:49:14.113Z,42.95
2023-08-12T10:51:46.883Z,42.62
2023-08-12T10:54:17.291Z,44.54
2023-08-12T10:57:04.316Z,42.66
2023-08-12T10:59:47.749Z,35.78
2023-08-12T11:02:30.548Z,39.52
2023-08-12T11:05:04.017Z,41.11
2023-08-12T11:07:59.634Z,41.68
2023-08-12T11:10:34.033Z,40.57
2023-08-12T11:13:04.852Z,44.14
2023-08-12T11:15:38.132Z,43.42
2023-08-12T11:18:11.462Z,42.55
2023-08-12T11:20:40.198Z,43.14
2023-08-12T11:23:09.907Z,45.67
2023-08-12T11:25:40.609Z,48.26
2023-08-12T11:28:09.656Z,45.16
2023-08-12T11:30:37.984Z,45.88
2023-08-12T11:33:06.556Z,45.11
2023-08-12T11:35:35.815Z,45.99
2023-08-12T11:38:05.994Z,45.88
2023-08-12T11:40:35.782Z,44.72
2023-08-12T11:43:07.147Z,46.47
2023-08-12T11:45:35.799Z,46.47
2023-08-12T11:48:06.047Z,47.44
2023-08-12T11:50:34.675Z,46.01
2023-08-12T11:53:03.265Z,45.18
2023-08-12T11:55:31.689Z,45.76
2023-08-12T11:57:59.869Z,47.25
2023-08-12T12:00:28.571Z,48.21
2023-08-12T12:02:57.786Z,48.19
2023-08-12T12:05:33.155Z,46.71
2023-08-12T12:08:01.815Z,49.41
2023-08-12T12:10:34.812Z,48.26
2023-08-12T12:13:05.639Z,47.06
2023-08-12T12:15:42.236Z,48.87
2023-08-12T12:18:14.416Z,47.73
2023-08-12T12:20:58.358Z,48.21
2023-08-12T12:23:30.559Z,47.53
2023-08-12T12:26:03.240Z,50.36
2023-08-12T12:28:32.163Z,47.31
2023-08-12T12:31:00.619Z,47.15
2023-08-12T12:33:28.798Z,46.45
2023-08-12T12:36:00.371Z,47.95
2023-08-12T12:38:30.117Z,42.68
2023-08-12T12:40:58.769Z,45.33
2023-08-12T12:43:26.928Z,44.06
2023-08-12T12:45:55.179Z,44.59
2023-08-12T12:48:23.854Z,44.70
2023-08-12T12:50:52.032Z,45.56
2023-08-12T12:53:20.222Z,44.96
2023-08-12T12:55:49.206Z,43.60
2023-08-12T12:58:17.637Z,43.24
2023-08-12T13:00:45.765Z,43.78
2023-08-12T13:03:14.351Z,44.13
2023-08-12T13:05:42.426Z,43.67
2023-08-12T13:08:10.509Z,44.83
2023-08-12T13:10:39.141Z,45.25
2023-08-12T13:13:07.236Z,45.85
2023-08-12T13:15:35.921Z,46.45
2023-08-12T13:18:04.673Z,46.02
2023-08-12T13:20:32.746Z,47.57
2023-08-12T13:23:01.020Z,45.98
2023-08-12T13:25:34.647Z,46.75
2023-08-12T13:28:04.654Z,44.30
2023-08-12T13:30:33.123Z,45.45
2023-08-12T13:33:02.145Z,47.38
2023-08-12T13:35:30.493Z,46.89
2023-08-12T13:37:58.987Z,46.94
2023-08-12T13:40:27.564Z,47.69
2023-08-12T13:42:55.744Z,46.31
2023-08-12T13:45:26.340Z,47.21
2023-08-12T13:47:54.638Z,48.67
2023-08-12T13:50:23.018Z,47.35
2023-08-12T13:52:51.688Z,49.01
2023-08-12T13:55:20.140Z,48.81
2023-08-12T13:57:48.212Z,49.53
2023-08-12T14:00:16.942Z,49.34
2023-08-12T14:02:45.678Z,46.33
2023-08-12T14:05:14.060Z,48.02
2023-08-12T14:07:42.460Z,48.57
2023-08-12T14:10:11.059Z,48.06
2023-08-12T14:12:39.535Z,48.38
2023-08-12T14:15:08.193Z,48.81
2023-08-12T14:17:36.708Z,46.92
2023-08-12T14:20:08.902Z,50.89
2023-08-12T14:22:37.592Z,49.42
2023-08-12T14:25:06.608Z,49.17
2023-08-12T14:27:34.881Z,49.40
2023-08-12T14:30:04.332Z,47.62
2023-08-12T14:32:32.846Z,49.28
2023-08-12T14:35:00.972Z,49.90
2023-08-12T14:37:29.580Z,49.20
2023-08-12T14:39:58.075Z,48.17
2023-08-12T14:42:26.357Z,48.87
2023-08-12T14:44:55.013Z,48.30
2023-08-12T14:47:23.207Z,49.43
2023-08-12T14:49:53.378Z,49.12
2023-08-12T14:52:21.959Z,49.65
2023-08-12T14:54:50.364Z,49.03
2023-08-12T14:57:18.473Z,49.03
2023-08-12T14:59:51.681Z,49.72
2023-08-12T15:02:23.894Z,49.26
2023-08-12T15:04:52.605Z,48.05
2023-08-12T15:07:22.366Z,49.55
2023-08-12T15:09:52.412Z,48.96
2023-08-12T15:12:21.514Z,49.18
2023-08-12T15:14:49.783Z,49.05
2023-08-12T15:17:17.909Z,49.21
2023-08-12T15:19:46.403Z,48.93
2023-08-12T15:22:15.469Z,49.26
2023-08-12T15:24:43.500Z,50.78
2023-08-12T15:27:12.160Z,49.94
2023-08-12T15:29:40.897Z,49.12
2023-08-12T15:32:08.926Z,49.89
2023-08-12T15:34:37.269Z,48.79
2023-08-12T15:37:05.582Z,49.71
2023-08-12T15:39:34.795Z,50.12
2023-08-12T15:42:03.558Z,49.99
2023-08-12T15:44:31.907Z,49.65
2023-08-12T15:47:00.052Z,50.05
2023-08-12T15:49:33.330Z,49.20
2023-08-12T15:52:02.544Z,49.97
2023-08-12T15:54:30.954Z,49.99
2023-08-12T15:56:59.023Z,49.72
2023-08-12T15:59:27.198Z,51.74
2023-08-12T16:01:55.662Z,51.49
2023-08-12T16:04:24.190Z,50.96
2023-08-12T16:06:52.624Z,51.65
2023-08-12T16:09:23.611Z,52.11
2023-08-12T16:11:52.622Z,52.19
2023-08-12T16:14:20.777Z,53.51
2023-08-12T16:16:48.985Z,51.97
2023-08-12T16:19:17.409Z,51.48
2023-08-12T16:21:45.603Z,52.13
2023-08-12T16:24:13.742Z,53.13
2023-08-12T16:26:42.126Z,55.85
2023-08-12T16:29:10.290Z,53.24
2023-08-12T16:31:40.402Z,53.51
2023-08-12T16:34:09.365Z,53.72
2023-08-12T16:36:37.896Z,54.21
2023-08-12T16:39:07.739Z,54.20
2023-08-12T16:41:36.433Z,54.89
2023-08-12T16:44:05.334Z,55.29
2023-08-12T16:46:33.513Z,55.41
2023-08-12T16:49:01.946Z,55.81
2023-08-12T16:51:29.963Z,58.07
2023-08-12T16:53:58.104Z,56.53
2023-08-12T16:56:26.719Z,57.52
2023-08-12T16:58:54.914Z,59.36
2023-08-12T17:01:26.062Z,60.27
2023-08-12T17:03:54.577Z,60.47
2023-08-12T17:06:23.340Z,61.31
2023-08-12T17:08:51.567Z,62.21
2023-08-12T17:11:20.887Z,62.21
2023-08-12T17:13:49.100Z,61.58
2023-08-12T17:16:17.220Z,62.19
2023-08-12T17:18:45.676Z,64.08
2023-08-12T17:21:13.927Z,64.42
2023-08-12T17:23:42.166Z,64.83
2023-08-12T17:26:10.577Z,65.05
2023-08-12T17:28:38.822Z,65.71
2023-08-12T17:31:07.328Z,65.76
2023-08-12T17:33:35.882Z,63.94
2023-08-12T17:36:04.483Z,65.58
2023-08-12T17:38:32.603Z,65.83
2023-08-12T17:41:03.525Z,66.38
2023-08-12T17:43:31.723Z,65.77
2023-08-12T17:46:00.055Z,67.01
2023-08-12T17:48:28.936Z,68.33
2023-08-12T17:50:57.190Z,68.98
2023-08-12T17:53:25.324Z,69.26
2023-08-12T17:55:53.752Z,68.91
2023-08-12T17:58:21.946Z,69.40
2023-08-12T18:00:50.085Z,69.64
2023-08-12T18:03:18.756Z,70.01
2023-08-12T18:05:47.493Z,70.58
2023-08-12T18:08:15.612Z,70.58
2023-08-12T18:10:44.165Z,70.30
2023-08-12T18:13:12.637Z,69.70
2023-08-12T18:15:40.729Z,69.92
2023-08-12T18:18:09.313Z,69.96
2023-08-12T18:20:37.734Z,69.54
2023-08-12T18:23:06.051Z,68.94
2023-08-12T18:25:34.488Z,68.77
2023-08-12T18:28:02.707Z,69.55
2023-08-12T18:30:31.948Z,68.84
2023-08-12T18:33:04.205Z,70.82
2023-08-12T18:35:33.386Z,70.80
2023-08-12T18:38:02.289Z,71.94
2023-08-12T18:40:33.361Z,71.74
2023-08-12T18:43:02.167Z,71.35
2023-08-12T18:45:30.368Z,70.29
2023-08-12T18:47:58.690Z,71.19
2023-08-12T18:50:27.552Z,71.78
2023-08-12T18:52:56.056Z,71.84
2023-08-12T18:55:24.420Z,72.58
2023-08-12T18:57:53.076Z,73.43
2023-08-12T19:00:21.983Z,73.04
2023-08-12T19:02:51.211Z,72.12
2023-08-12T19:05:19.996Z,73.02
2023-08-12T19:07:48.131Z,72.63
2023-08-12T19:10:16.372Z,72.73
2023-08-12T19:12:45.024Z,73.47
2023-08-12T19:15:13.092Z,74.36
2023-08-12T19:17:41.193Z,74.66
2023-08-12T19:20:11.095Z,74.90
2023-08-12T19:22:39.367Z,74.84
2023-08-12T19:25:07.905Z,75.17
2023-08-12T19:27:36.502Z,74.79
2023-08-12T19:30:05.219Z,75.55
2023-08-12T19:32:55.678Z,74.86
2023-08-12T19:35:24.272Z,75.63
2023-08-12T19:37:56.284Z,76.66
2023-08-12T19:40:24.923Z,76.84
2023-08-12T19:42:53.743Z,77.50
2023-08-12T19:45:21.958Z,76.92
2023-08-12T19:47:50.413Z,77.92
2023-08-12T19:50:18.486Z,78.00
2023-08-12T19:52:46.617Z,78.04
2023-08-12T19:55:15.232Z,78.58
2023-08-12T19:57:43.526Z,77.29
2023-08-12T20:00:12.237Z,76.93
2023-08-12T20:02:42.701Z,77.47
2023-08-12T20:05:19.116Z,78.14
2023-08-12T20:07:49.361Z,77.24
2023-08-12T20:10:20.047Z,77.85
2023-08-12T20:12:48.494Z,77.45
2023-08-12T20:15:17.353Z,76.96
2023-08-12T20:17:45.819Z,77.83
2023-08-12T20:20:18.536Z,78.81
2023-08-12T20:23:03.198Z,79.14
2023-08-12T20:25:37.161Z,79.14
2023-08-12T20:28:08.652Z,79.54
2023-08-12T20:30:37.659Z,80.85
2023-08-12T20:33:06.537Z,79.99
2023-08-12T20:35:34.839Z,80.69
2023-08-12T20:38:03.187Z,79.36
2023-08-12T20:40:31.569Z,79.67
2023-08-12T20:42:59.866Z,80.88
2023-08-12T20:45:28.034Z,81.25
2023-08-12T20:47:56.418Z,81.21
2023-08-12T20:50:24.799Z,80.96
2023-08-12T20:52:53.101Z,82.34
2023-08-12T20:55:21.499Z,81.73
2023-08-12T20:57:49.769Z,81.78
2023-08-12T21:00:18.436Z,81.25
2023-08-12T21:02:46.932Z,81.34
2023-08-12T21:05:15.482Z,81.05
2023-08-12T21:07:43.848Z,81.59
2023-08-12T21:10:13.200Z,80.64
2023-08-12T21:12:41.449Z,80.62
2023-08-12T21:15:10.976Z,81.82
2023-08-12T21:17:39.502Z,82.36
2023-08-12T21:20:08.413Z,83.02
2023-08-12T21:22:36.609Z,82.90
2023-08-12T21:25:05.618Z,83.38
2023-08-12T21:27:34.769Z,81.53
2023-08-12T21:30:03.257Z,81.08
2023-08-12T21:32:32.701Z,82.03
2023-08-12T21:35:01.532Z,81.98
2023-08-12T21:37:30.428Z,81.98
2023-08-12T21:39:58.880Z,81.98
2023-08-12T21:42:26.989Z,84.16
2023-08-12T21:44:55.329Z,83.50
2023-08-12T21:47:23.750Z,82.27
2023-08-12T21:49:51.814Z,82.71
2023-08-12T21:52:19.972Z,82.85
2023-08-12T21:54:48.705Z,83.71
2023-08-12T21:57:16.997Z,84.48
2023-08-12T21:59:45.608Z,84.65
2023-08-12T22:02:23.616Z,83.96
2023-08-12T22:04:52.358Z,84.30
2023-08-12T22:07:21.072Z,83.77
2023-08-12T22:09:49.044Z,83.37
2023-08-12T22:12:17.316Z,84.05
2023-08-12T22:14:45.533Z,83.86
2023-08-12T22:17:13.777Z,84.28
2023-08-12T22:19:42.251Z,84.48
2023-08-12T22:22:19.177Z,83.88
2023-08-12T22:24:49.032Z,85.21
2023-08-12T22:27:17.233Z,86.32
2023-08-12T22:29:45.362Z,85.50
2023-08-12T22:32:14.267Z,84.82
2023-08-12T22:34:42.579Z,84.86
2023-08-12T22:37:11.121Z,85.55
2023-08-12T22:39:39.812Z,84.85
2023-08-12T22:42:08.033Z,85.15
2023-08-12T22:44:36.139Z,86.11
2023-08-12T22:47:04.929Z,86.93
2023-08-12T22:49:33.053Z,85.86
2023-08-12T22:52:01.120Z,85.37
2023-08-12T22:54:29.590Z,85.15
2023-08-12T22:56:57.913Z,85.75
2023-08-12T22:59:26.202Z,86.14
2023-08-12T23:01:54.669Z,85.80
2023-08-12T23:04:22.820Z,84.56
2023-08-12T23:06:50.932Z,86.70
2023-08-12T23:09:19.816Z,85.23
2023-08-12T23:11:47.956Z,85.73
2023-08-12T23:14:15.990Z,86.30
2023-08-12T23:16:44.530Z,86.14
2023-08-12T23:19:12.870Z,85.89
2023-08-12T23:21:40.940Z,87.38
2023-08-12T23:24:09.458Z,87.58
2023-08-12T23:26:38.258Z,86.81
2023-08-12T23:29:07.058Z,85.68
2023-08-12T23:31:35.515Z,85.22
2023-08-12T23:34:03.715Z,86.29
2023-08-12T23:36:34.615Z,86.79
2023-08-12T23:39:04.690Z,86.41
2023-08-12T23:41:33.113Z,86.07
2023-08-12T23:44:01.536Z,85.84
2023-08-12T23:46:30.049Z,86.35
2023-08-12T23:48:58.050Z,87.31
2023-08-12T23:51:26.129Z,88.69
2023-08-12T23:53:54.852Z,88.92
2023-08-12T23:56:22.924Z,87.88
2023-08-12T23:58:51.035Z,87.98
